createdAt,value
2023-01-18T00:00:46.962Z,4.90
2023-01-18T00:03:13.821Z,5.22
2023-01-18T00:05:43.609Z,5.10
2023-01-18T00:08:10.563Z,5.60
2023-01-18T00:10:37.404Z,5.30
2023-01-18T00:13:04.288Z,5.18
2023-01-18T00:15:31.235Z,5.28
2023-01-18T00:17:57.602Z,5.15
2023-01-18T00:20:25.495Z,6.15
2023-01-18T00:22:52.313Z,5.13
2023-01-18T00:25:19.822Z,5.50
2023-01-18T00:27:47.758Z,5.55
2023-01-18T00:30:14.679Z,5.45
2023-01-18T00:32:41.080Z,5.20
2023-01-18T00:35:08.164Z,5.57
2023-01-18T00:37:35.176Z,4.95
2023-01-18T00:40:01.628Z,5.18
2023-01-18T00:42:46.767Z,5.15
2023-01-18T00:45:13.159Z,4.85
2023-01-18T00:47:39.541Z,5.50
2023-01-18T00:50:06.222Z,4.82
2023-01-18T00:52:34.752Z,5.10
2023-01-18T00:55:01.747Z,5.65
2023-01-18T00:57:28.191Z,4.88
2023-01-18T00:59:54.635Z,5.13
2023-01-18T01:02:21.076Z,5.18
2023-01-18T01:05:06.298Z,5.35
2023-01-18T01:07:32.693Z,5.35
2023-01-18T01:09:59.248Z,5.20
2023-01-18T01:12:44.962Z,5.20
2023-01-18T01:18:14.715Z,4.88
2023-01-18T01:20:59.424Z,5.05
2023-01-18T01:23:44.354Z,5.05
2023-01-18T01:26:11.743Z,4.68
2023-01-18T01:28:40.239Z,4.85
2023-01-18T01:31:07.786Z,4.40
2023-01-18T01:33:34.696Z,4.85
2023-01-18T01:36:02.626Z,4.80
2023-01-18T01:38:29.374Z,4.93
2023-01-18T01:40:56.666Z,5.03
2023-01-18T01:43:37.159Z,5.03
2023-01-18T01:46:04.674Z,4.60
2023-01-18T01:48:31.337Z,4.65
2023-01-18T01:50:57.952Z,4.85
2023-01-18T01:53:24.284Z,4.65
2023-01-18T01:55:50.645Z,4.57
2023-01-18T01:58:24.343Z,4.90
2023-01-18T02:00:50.796Z,4.40
2023-01-18T02:03:20.747Z,4.35
2023-01-18T02:05:49.252Z,4.50
2023-01-18T02:08:22.249Z,4.65
2023-01-18T02:10:49.102Z,4.45
2023-01-18T02:13:16.095Z,4.50
2023-01-18T02:15:47.411Z,4.57
2023-01-18T02:18:19.429Z,4.53
2023-01-18T02:21:10.392Z,4.90
2023-01-18T02:23:59.659Z,4.15
2023-01-18T02:26:44.980Z,4.53
2023-01-18T02:29:18.061Z,4.85
2023-01-18T02:31:53.500Z,4.78
2023-01-18T02:34:30.848Z,4.72
2023-01-18T02:37:04.722Z,4.38
2023-01-18T02:39:49.298Z,4.10
2023-01-18T02:42:42.472Z,4.57
2023-01-18T02:46:00.247Z,4.18
2023-01-18T02:48:32.440Z,4.70
2023-01-18T02:50:58.787Z,4.00
2023-01-18T02:53:25.217Z,4.28
2023-01-18T02:56:00.903Z,4.68
2023-01-18T02:58:31.633Z,4.40
2023-01-18T03:01:09.183Z,4.53
2023-01-18T03:03:36.061Z,5.38
2023-01-18T03:06:03.439Z,4.80
2023-01-18T03:08:36.666Z,5.05
2023-01-18T03:11:06.003Z,4.50
2023-01-18T03:13:35.488Z,4.65
2023-01-18T03:16:05.965Z,5.13
2023-01-18T03:18:59.962Z,4.90
2023-01-18T03:21:37.676Z,4.88
2023-01-18T03:24:05.591Z,5.00
2023-01-18T03:26:35.181Z,5.32
2023-01-18T03:29:21.257Z,5.20
2023-01-18T03:32:15.324Z,5.60
2023-01-18T03:34:41.785Z,5.60
2023-01-18T03:37:13.858Z,5.75
2023-01-18T03:39:45.476Z,5.57
2023-01-18T03:42:16.796Z,5.53
2023-01-18T03:44:49.935Z,6.07
2023-01-18T03:47:16.417Z,6.25
2023-01-18T03:49:42.854Z,6.47
2023-01-18T03:52:09.268Z,6.57
2023-01-18T03:54:40.365Z,5.88
2023-01-18T03:57:25.475Z,6.32
2023-01-18T03:59:51.892Z,6.22
2023-01-18T04:02:18.504Z,6.18
2023-01-18T04:04:45.007Z,6.00
2023-01-18T04:07:11.385Z,5.75
2023-01-18T04:09:37.740Z,6.75
2023-01-18T04:12:04.221Z,6.80
2023-01-18T04:14:31.095Z,8.18
2023-01-18T04:16:57.494Z,9.18
2023-01-18T04:19:23.875Z,9.40
2023-01-18T04:21:50.400Z,6.55
2023-01-18T04:24:17.282Z,7.22
2023-01-18T04:26:43.586Z,6.93
2023-01-18T04:29:10.601Z,7.07
2023-01-18T04:31:37.226Z,7.63
2023-01-18T04:34:03.816Z,6.95
2023-01-18T04:36:30.196Z,6.93
2023-01-18T04:38:57.306Z,6.88
2023-01-18T04:41:23.977Z,6.55
2023-01-18T04:43:50.388Z,7.13
2023-01-18T04:46:16.827Z,7.47
2023-01-18T04:48:43.378Z,9.50
2023-01-18T04:51:15.356Z,19.25
2023-01-18T04:53:42.588Z,24.45
2023-01-18T04:56:09.344Z,11.35
2023-01-18T04:58:35.873Z,8.98
2023-01-18T05:01:03.034Z,9.40
2023-01-18T05:03:38.076Z,9.68
2023-01-18T05:06:09.559Z,10.43
2023-01-18T05:08:35.988Z,9.50
2023-01-18T05:11:03.684Z,8.10
2023-01-18T05:13:30.177Z,7.75
2023-01-18T05:15:56.916Z,8.43
2023-01-18T05:18:23.414Z,8.52
2023-01-18T05:20:49.919Z,7.55
2023-01-18T05:23:16.494Z,8.02
2023-01-18T05:25:43.364Z,8.10
2023-01-18T05:28:10.198Z,7.75
2023-01-18T05:30:38.769Z,7.93
2023-01-18T05:33:05.121Z,7.53
2023-01-18T05:35:32.180Z,8.32
2023-01-18T05:37:58.627Z,8.00
2023-01-18T05:40:28.095Z,8.00
2023-01-18T05:42:57.287Z,8.82
2023-01-18T05:45:23.910Z,8.27
2023-01-18T05:47:50.436Z,9.63
2023-01-18T05:50:16.890Z,8.25
2023-01-18T05:52:43.466Z,9.10
2023-01-18T05:55:09.820Z,8.55
2023-01-18T05:57:36.265Z,8.50
2023-01-18T06:00:06.033Z,8.10
2023-01-18T06:02:32.432Z,10.18
2023-01-18T06:04:58.905Z,8.70
2023-01-18T06:07:25.271Z,9.68
2023-01-18T06:09:51.678Z,9.85
2023-01-18T06:12:18.058Z,9.43
2023-01-18T06:14:44.410Z,9.52
2023-01-18T06:17:10.851Z,9.80
2023-01-18T06:19:37.311Z,9.65
2023-01-18T06:22:03.782Z,10.63
2023-01-18T06:24:30.194Z,10.48
2023-01-18T06:26:57.881Z,10.75
2023-01-18T06:29:24.278Z,11.50
2023-01-18T06:31:50.732Z,10.88
2023-01-18T06:34:18.005Z,11.18
2023-01-18T06:36:45.188Z,11.13
2023-01-18T06:39:11.922Z,10.63
2023-01-18T06:41:39.152Z,10.45
2023-01-18T06:44:05.938Z,11.15
2023-01-18T06:46:33.499Z,10.35
2023-01-18T06:48:59.861Z,11.52
2023-01-18T06:51:26.401Z,11.73
2023-01-18T06:53:52.750Z,11.68
2023-01-18T06:56:19.198Z,12.07
2023-01-18T06:58:45.637Z,11.48
2023-01-18T07:01:12.249Z,11.52
2023-01-18T07:03:39.022Z,11.45
2023-01-18T07:06:06.440Z,11.80
2023-01-18T07:08:32.895Z,11.63
2023-01-18T07:11:03.185Z,11.57
2023-01-18T07:13:29.613Z,11.02
2023-01-18T07:16:00.822Z,11.82
2023-01-18T07:18:28.478Z,10.80
2023-01-18T07:21:02.263Z,11.52
2023-01-18T07:23:29.642Z,11.70
2023-01-18T07:25:59.893Z,11.15
2023-01-18T07:28:26.564Z,11.60
2023-01-18T07:30:52.952Z,10.88
2023-01-18T07:33:19.356Z,10.55
2023-01-18T07:35:45.725Z,10.98
2023-01-18T07:38:12.108Z,10.30
2023-01-18T07:40:38.482Z,11.05
2023-01-18T07:43:04.892Z,11.02
2023-01-18T07:45:31.273Z,10.90
2023-01-18T07:47:57.585Z,10.38
2023-01-18T07:50:24.072Z,10.98
2023-01-18T07:52:50.482Z,10.57
2023-01-18T07:55:16.954Z,10.73
2023-01-18T07:57:43.998Z,10.98
2023-01-18T08:00:11.277Z,10.88
2023-01-18T08:02:37.720Z,11.95
2023-01-18T08:05:04.882Z,10.48
2023-01-18T08:07:34.447Z,11.38
2023-01-18T08:10:00.825Z,11.00
2023-01-18T08:12:27.351Z,10.02
2023-01-18T08:14:53.710Z,10.10
2023-01-18T08:17:20.200Z,10.18
2023-01-18T08:19:47.748Z,11.30
2023-01-18T08:22:14.277Z,10.82
2023-01-18T08:24:41.007Z,10.60
2023-01-18T08:27:07.732Z,10.10
2023-01-18T08:29:35.641Z,10.70
2023-01-18T08:32:04.605Z,10.57
2023-01-18T08:34:33.475Z,10.75
2023-01-18T08:37:01.355Z,10.35
2023-01-18T08:39:33.485Z,9.90
2023-01-18T08:42:00.084Z,11.05
2023-01-18T08:44:29.517Z,11.38
2023-01-18T08:46:58.068Z,9.48
2023-01-18T08:49:24.522Z,8.88
2023-01-18T08:51:51.906Z,8.43
2023-01-18T08:54:18.290Z,9.43
2023-01-18T08:56:44.655Z,9.63
2023-01-18T08:59:11.132Z,9.98
2023-01-18T09:01:37.592Z,9.68
2023-01-18T09:04:04.018Z,10.32
2023-01-18T09:06:32.189Z,10.15
2023-01-18T09:08:59.481Z,11.98
2023-01-18T09:11:26.303Z,12.10
2023-01-18T09:14:00.723Z,12.52
2023-01-18T09:16:27.908Z,11.38
2023-01-18T09:18:56.239Z,11.88
2023-01-18T09:21:23.127Z,11.38
2023-01-18T09:23:50.775Z,10.85
2023-01-18T09:26:18.286Z,11.07
2023-01-18T09:28:45.018Z,10.38
2023-01-18T09:31:12.469Z,10.52
2023-01-18T09:33:39.684Z,10.80
2023-01-18T09:36:07.785Z,11.00
2023-01-18T09:38:36.032Z,10.65
2023-01-18T09:41:03.122Z,9.52
2023-01-18T09:43:32.611Z,9.35
2023-01-18T09:45:59.810Z,9.65
2023-01-18T09:48:26.207Z,8.93
2023-01-18T09:50:53.976Z,9.60
2023-01-18T09:53:38.903Z,9.40
2023-01-18T09:56:16.539Z,10.70
2023-01-18T09:58:50.361Z,10.30
2023-01-18T10:01:22.346Z,11.30
2023-01-18T10:03:49.170Z,10.05
2023-01-18T10:06:27.174Z,10.20
2023-01-18T10:09:04.224Z,11.18
2023-01-18T10:11:36.544Z,9.20
2023-01-18T10:14:19.456Z,10.15
2023-01-18T10:16:51.313Z,9.10
2023-01-18T10:19:21.397Z,8.40
2023-01-18T10:21:50.735Z,8.77
2023-01-18T10:24:26.428Z,9.05
2023-01-18T10:26:53.544Z,9.25
2023-01-18T10:29:35.635Z,9.77
2023-01-18T10:32:04.540Z,10.63
2023-01-18T10:34:35.222Z,10.35
2023-01-18T10:37:12.446Z,8.88
2023-01-18T10:39:41.786Z,9.65
2023-01-18T10:42:19.656Z,9.48
2023-01-18T10:44:46.111Z,11.38
2023-01-18T10:47:17.791Z,12.63
2023-01-18T10:49:45.344Z,13.90
2023-01-18T10:52:18.897Z,14.43
2023-01-18T10:55:12.102Z,11.93
2023-01-18T10:57:43.453Z,14.40
2023-01-18T11:00:23.332Z,13.85
2023-01-18T11:02:51.804Z,10.98
2023-01-18T11:05:32.769Z,7.55
2023-01-18T11:08:11.541Z,7.82
2023-01-18T11:10:38.270Z,11.40
2023-01-18T11:13:22.647Z,8.35
2023-01-18T11:15:51.834Z,8.25
2023-01-18T11:18:18.641Z,8.63
2023-01-18T11:20:48.754Z,8.65
2023-01-18T11:23:21.402Z,7.63
2023-01-18T11:26:01.917Z,8.20
2023-01-18T11:28:31.410Z,8.40
2023-01-18T11:31:19.035Z,8.00
2023-01-18T11:33:50.103Z,9.90
2023-01-18T11:36:16.979Z,8.00
2023-01-18T11:38:43.395Z,9.15
2023-01-18T11:41:17.023Z,8.57
2023-01-18T11:44:01.886Z,9.10
2023-01-18T11:46:39.049Z,8.97
2023-01-18T11:49:37.021Z,7.10
2023-01-18T11:52:07.796Z,6.45
2023-01-18T11:54:41.111Z,7.80
2023-01-18T11:57:12.397Z,8.43
2023-01-18T11:59:43.577Z,9.50
2023-01-18T12:02:29.973Z,9.68
2023-01-18T12:05:15.321Z,11.57
2023-01-18T12:08:03.229Z,12.32
2023-01-18T12:10:45.075Z,11.80
2023-01-18T12:13:26.690Z,12.57
2023-01-18T12:16:02.306Z,11.55
2023-01-18T12:18:34.753Z,11.90
2023-01-18T12:21:04.166Z,11.35
2023-01-18T12:23:31.266Z,10.43
2023-01-18T12:26:12.213Z,10.43
2023-01-18T12:28:57.928Z,11.25
2023-01-18T12:31:32.248Z,16.33
2023-01-18T12:33:58.643Z,11.20
2023-01-18T12:36:46.099Z,10.07
2023-01-18T12:39:20.597Z,9.52
2023-01-18T12:41:59.809Z,10.20
2023-01-18T12:44:38.978Z,9.63
2023-01-18T12:47:05.406Z,9.88
2023-01-18T12:49:34.827Z,10.65
2023-01-18T12:52:17.809Z,10.93
2023-01-18T12:54:50.335Z,10.27
2023-01-18T12:57:17.282Z,10.65
2023-01-18T12:59:54.068Z,10.18
2023-01-18T13:02:34.443Z,10.30
2023-01-18T13:05:23.156Z,10.50
2023-01-18T13:07:57.378Z,11.07
2023-01-18T13:10:27.951Z,10.32
2023-01-18T13:12:55.175Z,11.95
2023-01-18T13:15:38.491Z,11.10
2023-01-18T13:18:10.461Z,10.00
2023-01-18T13:20:37.227Z,9.75
2023-01-18T13:23:36.296Z,9.27
2023-01-18T13:26:25.320Z,13.05
2023-01-18T13:29:10.191Z,10.75
2023-01-18T13:31:37.427Z,9.70
2023-01-18T13:34:04.000Z,9.13
2023-01-18T13:36:44.566Z,9.52
2023-01-18T13:39:14.663Z,10.18
2023-01-18T13:42:01.029Z,10.05
2023-01-18T13:44:32.408Z,10.27
2023-01-18T13:47:02.061Z,9.60
2023-01-18T13:49:38.687Z,10.32
2023-01-18T13:52:31.562Z,9.13
2023-01-18T13:55:01.176Z,9.02
2023-01-18T13:57:28.812Z,8.80
2023-01-18T13:59:55.259Z,9.00
2023-01-18T14:02:26.630Z,9.75
2023-01-18T14:05:19.833Z,8.10
2023-01-18T14:07:48.207Z,8.50
2023-01-18T14:10:33.305Z,8.48
2023-01-18T14:13:02.091Z,7.72
2023-01-18T14:15:47.189Z,8.55
2023-01-18T14:18:24.141Z,6.37
2023-01-18T14:21:06.197Z,6.95
2023-01-18T14:23:48.186Z,7.38
2023-01-18T14:26:19.946Z,7.20
2023-01-18T14:28:48.205Z,6.78
2023-01-18T14:31:18.530Z,7.28
2023-01-18T14:33:45.089Z,7.40
2023-01-18T14:36:22.673Z,8.82
2023-01-18T14:39:06.730Z,7.45
2023-01-18T14:41:33.202Z,7.75
2023-01-18T14:43:59.580Z,7.00
2023-01-18T14:46:26.929Z,7.43
2023-01-18T14:48:54.607Z,7.03
2023-01-18T14:51:22.600Z,6.60
2023-01-18T14:53:54.977Z,7.78
2023-01-18T14:56:28.526Z,7.18
2023-01-18T14:58:59.520Z,7.10
2023-01-18T15:01:39.328Z,6.65
2023-01-18T15:04:17.038Z,7.63
2023-01-18T15:06:45.845Z,7.00
2023-01-18T15:09:14.803Z,6.43
2023-01-18T15:11:42.214Z,7.82
2023-01-18T15:14:29.196Z,7.38
2023-01-18T15:16:57.088Z,7.03
2023-01-18T15:19:24.818Z,6.90
2023-01-18T15:21:51.328Z,6.72
2023-01-18T15:24:19.617Z,6.57
2023-01-18T15:26:47.601Z,6.47
2023-01-18T15:29:15.055Z,6.30
2023-01-18T15:31:49.976Z,6.60
2023-01-18T15:34:17.416Z,7.15
2023-01-18T15:36:44.647Z,8.60
2023-01-18T15:39:12.041Z,6.85
2023-01-18T15:41:39.517Z,9.07
2023-01-18T15:44:06.059Z,8.02
2023-01-18T15:46:37.402Z,7.38
2023-01-18T15:49:05.175Z,8.38
2023-01-18T15:51:50.217Z,8.70
2023-01-18T15:54:17.916Z,8.30
2023-01-18T15:56:45.796Z,9.35
2023-01-18T15:59:13.273Z,9.60
2023-01-18T16:01:41.498Z,10.25
2023-01-18T16:04:21.137Z,11.40
2023-01-18T16:06:47.619Z,11.02
2023-01-18T16:09:16.007Z,14.15
2023-01-18T16:11:52.136Z,13.35
2023-01-18T16:14:46.013Z,13.52
2023-01-18T16:17:18.373Z,12.27
2023-01-18T16:19:44.704Z,13.20
2023-01-18T16:22:29.902Z,14.00
2023-01-18T16:24:56.362Z,14.13
2023-01-18T16:27:24.456Z,14.65
2023-01-18T16:29:52.454Z,15.88
2023-01-18T16:32:21.932Z,15.48
2023-01-18T16:34:48.707Z,15.82
2023-01-18T16:37:15.377Z,16.35
2023-01-18T16:39:41.829Z,14.98
2023-01-18T16:42:11.717Z,15.13
2023-01-18T16:44:39.115Z,16.08
2023-01-18T16:47:09.623Z,16.65
2023-01-18T16:49:36.608Z,17.60
2023-01-18T16:52:08.391Z,19.25
2023-01-18T16:54:37.315Z,16.60
2023-01-18T16:57:04.284Z,19.02
2023-01-18T16:59:33.104Z,18.67
2023-01-18T17:02:12.454Z,21.75
2023-01-18T17:04:42.917Z,20.85
2023-01-18T17:07:14.062Z,18.08
2023-01-18T17:09:48.848Z,20.05
2023-01-18T17:13:03.081Z,19.48
2023-01-18T17:15:02.989Z,22.13
2023-01-18T17:17:31.222Z,19.27
2023-01-18T17:19:57.618Z,17.55
2023-01-18T17:22:24.010Z,14.95
2023-01-18T17:24:53.430Z,11.50
2023-01-18T17:27:20.051Z,13.65
2023-01-18T17:29:47.140Z,12.98
2023-01-18T17:32:15.561Z,10.88
2023-01-18T17:34:41.982Z,11.13
2023-01-18T17:37:08.906Z,12.63
2023-01-18T17:39:49.718Z,15.43
2023-01-18T17:42:29.720Z,11.88
2023-01-18T17:45:03.226Z,9.93
2023-01-18T17:47:30.353Z,9.10
2023-01-18T17:49:56.751Z,10.43
2023-01-18T17:52:23.109Z,10.77
2023-01-18T17:54:49.506Z,10.73
2023-01-18T17:57:15.957Z,10.23
2023-01-18T17:59:42.346Z,10.35
2023-01-18T18:02:09.524Z,12.77
2023-01-18T18:04:35.977Z,11.43
2023-01-18T18:07:02.529Z,12.10
2023-01-18T18:09:29.033Z,10.40
2023-01-18T18:11:55.474Z,10.25
2023-01-18T18:14:22.138Z,9.65
2023-01-18T18:16:48.522Z,10.32
2023-01-18T18:19:15.019Z,11.05
2023-01-18T18:21:43.343Z,11.23
2023-01-18T18:24:15.980Z,10.63
2023-01-18T18:26:42.480Z,11.25
2023-01-18T18:29:09.387Z,10.73
2023-01-18T18:34:18.774Z,9.90
2023-01-18T18:36:45.229Z,10.07
2023-01-18T18:39:11.660Z,9.55
2023-01-18T18:41:38.000Z,9.10
2023-01-18T18:44:04.449Z,10.18
2023-01-18T18:46:31.038Z,10.90
2023-01-18T18:48:57.521Z,14.30
2023-01-18T18:51:24.285Z,14.55
2023-01-18T18:53:51.072Z,15.32
2023-01-18T18:56:17.601Z,15.45
2023-01-18T18:58:43.968Z,15.98
2023-01-18T19:01:20.020Z,15.90
2023-01-18T19:03:46.860Z,15.80
2023-01-18T19:06:13.189Z,15.00
2023-01-18T19:08:39.565Z,16.17
2023-01-18T19:11:06.612Z,15.43
2023-01-18T19:13:33.000Z,14.93
2023-01-18T19:15:59.514Z,13.88
2023-01-18T19:18:25.994Z,13.93
2023-01-18T19:20:52.336Z,13.98
2023-01-18T19:23:18.925Z,12.77
2023-01-18T19:25:46.876Z,12.50
2023-01-18T19:28:13.269Z,12.00
2023-01-18T19:30:41.519Z,11.98
2023-01-18T19:33:08.726Z,12.95
2023-01-18T19:35:40.691Z,12.18
2023-01-18T19:38:07.880Z,12.40
2023-01-18T19:40:34.379Z,13.00
2023-01-18T19:43:01.255Z,13.32
2023-01-18T19:45:29.033Z,13.05
2023-01-18T19:47:56.299Z,11.95
2023-01-18T19:50:23.192Z,11.93
2023-01-18T19:52:50.284Z,12.85
2023-01-18T19:55:16.687Z,12.73
2023-01-18T19:57:43.081Z,12.38
2023-01-18T20:00:10.221Z,11.77
2023-01-18T20:02:40.589Z,12.15
2023-01-18T20:05:07.239Z,12.63
2023-01-18T20:07:33.650Z,12.35
2023-01-18T20:10:00.114Z,12.20
2023-01-18T20:12:29.307Z,13.02
2023-01-18T20:14:56.024Z,12.77
2023-01-18T20:17:22.598Z,12.93
2023-01-18T20:19:50.859Z,12.35
2023-01-18T20:22:17.355Z,12.82
2023-01-18T20:24:44.286Z,12.35
2023-01-18T20:27:16.258Z,12.10
2023-01-18T20:29:43.643Z,11.40
2023-01-18T20:32:16.148Z,10.77
2023-01-18T20:34:44.729Z,11.10
2023-01-18T20:37:11.964Z,10.27
2023-01-18T20:39:38.318Z,11.43
2023-01-18T20:42:04.961Z,12.77
2023-01-18T20:44:31.332Z,11.20
2023-01-18T20:46:57.690Z,10.85
2023-01-18T20:49:33.194Z,11.82
2023-01-18T20:52:04.926Z,11.25
2023-01-18T20:54:31.328Z,11.70
2023-01-18T20:56:58.811Z,10.90
2023-01-18T20:59:25.495Z,10.52
2023-01-18T21:01:52.991Z,11.75
2023-01-18T21:04:20.672Z,10.85
2023-01-18T21:06:47.916Z,9.82
2023-01-18T21:09:14.292Z,10.23
2023-01-18T21:11:40.674Z,9.05
2023-01-18T21:14:11.939Z,8.60
2023-01-18T21:16:38.601Z,8.60
2023-01-18T21:19:15.559Z,8.95
2023-01-18T21:21:42.102Z,8.25
2023-01-18T21:24:08.512Z,10.10
2023-01-18T21:26:36.055Z,9.73
2023-01-18T21:29:02.490Z,9.88
2023-01-18T21:31:28.954Z,10.18
2023-01-18T21:33:55.411Z,9.98
2023-01-18T21:36:22.975Z,10.45
2023-01-18T21:38:50.094Z,9.75
2023-01-18T21:41:35.336Z,9.73
2023-01-18T21:44:20.286Z,9.48
2023-01-18T21:46:47.298Z,10.32
2023-01-18T21:49:52.091Z,9.82
2023-01-18T21:52:38.956Z,9.40
2023-01-18T21:55:05.550Z,9.68
2023-01-18T21:57:31.941Z,10.65
2023-01-18T21:59:58.452Z,10.35
2023-01-18T22:02:25.049Z,10.02
2023-01-18T22:05:00.580Z,9.98
2023-01-18T22:07:27.986Z,8.90
2023-01-18T22:10:03.974Z,8.07
2023-01-18T22:12:32.798Z,8.65
2023-01-18T22:15:01.401Z,9.27
2023-01-18T22:17:27.851Z,8.77
2023-01-18T22:19:54.392Z,9.20
2023-01-18T22:22:20.807Z,9.13
2023-01-18T22:24:47.163Z,8.45
2023-01-18T22:27:13.622Z,9.23
2023-01-18T22:29:39.955Z,9.65
2023-01-18T22:32:06.368Z,8.75
2023-01-18T22:34:32.875Z,8.73
2023-01-18T22:36:59.218Z,7.85
2023-01-18T22:39:25.592Z,8.32
2023-01-18T22:41:52.088Z,7.82
2023-01-18T22:44:18.409Z,9.18
2023-01-18T22:46:44.802Z,8.82
2023-01-18T22:49:11.248Z,8.25
2023-01-18T22:51:37.696Z,7.13
2023-01-18T22:54:04.481Z,7.70
2023-01-18T22:56:30.878Z,7.40
2023-01-18T22:58:57.505Z,7.63
2023-01-18T23:01:25.106Z,6.80
2023-01-18T23:03:52.095Z,6.63
2023-01-18T23:06:18.961Z,6.57
2023-01-18T23:08:46.022Z,7.70
2023-01-18T23:11:12.347Z,7.93
2023-01-18T23:13:40.059Z,9.25
2023-01-18T23:16:25.861Z,8.95
2023-01-18T23:18:52.296Z,7.57
2023-01-18T23:21:18.730Z,7.05
2023-01-18T23:23:45.115Z,6.45
2023-01-18T23:26:11.510Z,7.00
2023-01-18T23:28:44.073Z,6.25
2023-01-18T23:31:11.760Z,6.68
2023-01-18T23:33:38.585Z,6.03
2023-01-18T23:36:05.619Z,6.57
2023-01-18T23:38:32.023Z,7.00
2023-01-18T23:41:17.072Z,6.65
2023-01-18T23:44:02.118Z,5.88
2023-01-18T23:46:47.028Z,6.00
2023-01-18T23:49:32.178Z,6.30
2023-01-18T23:52:17.053Z,5.70
2023-01-18T23:54:43.480Z,6.07
2023-01-18T23:57:09.830Z,6.60
2023-01-18T23:59:37.793Z,6.28
